Nearby METAR Reports

 

LFSI - St. Dizier/Robin, France
Distance from station: SO 26km
Mise à jour: 04/08/2020 11:00
clair
clair
 Wind from NNO
Vent: NNO 6 km/h
Température: 19°C
Point de rosée: 11°C
Humidité: 60%
Baromètre: 1017 hPa
Résumé: clair
Visibility: greater than 10 km
2020/08/04 09:00 LFSI 040900Z AUTO 33003KT 270V050 CAVOK 19/11 Q1017
LFSO - Nancy/Ochey (faf, France
Distance from station: ESE 62km
Mise à jour: 04/08/2020 11:00
clair
clair
 Wind from N
Vent: N 6 km/h
Température: 18°C
Point de rosée: 11°C
Humidité: 64%
Baromètre: 1017 hPa
Résumé: clair
Visibility: greater than 10 km
2020/08/04 09:00 LFSO 040900Z AUTO 35003KT 260V040 CAVOK 18/11 Q1017 NOSIG
LFOK - Chalons/Vatry Fa, France
Distance from station: O 73km
Mise à jour: 04/08/2020 11:00
Few Clouds
Few Clouds
 Wind from N
Vent: N 15 km/h
Température: 18°C
Point de rosée: 12°C
Humidité: 68%
Baromètre: 1018 hPa
Clouds: Few Clouds
Visibility: 10 km
Cloud details: Few Clouds 732 m
2020/08/04 09:00 LFOK 040900Z AUTO 35008KT 330V040 9999 FEW024 18/12 Q1018 NOSIG
 
LFSN - Nancy/Essey, France
Distance from station: E 77km
Mise à jour: 04/08/2020 11:00
Few Clouds
Few Clouds
 Wind from NNE
Vent: NNE 9 km/h
Température: 20°C
Point de rosée: 11°C
Humidité: 56%
Baromètre: 1017 hPa
Clouds: Few Clouds
Visibility: 10 km
Cloud details: Few Clouds 732 m
2020/08/04 09:00 LFSN 040900Z AUTO 03005KT 340V070 9999 FEW024 20/11 Q1017
LFSG - Epinal/Mirecourt, France
Distance from station: SE 81km
Mise à jour: 04/08/2020 11:00
Few Clouds
Few Clouds
 Wind from NNE
Vent: NNE 7 km/h
Température: 18°C
Point de rosée: 11°C
Humidité: 64%
Baromètre: 1017 hPa
Clouds: Few Clouds
Visibility: 10 km
Cloud details: Few Clouds 732 m
2020/08/04 09:00 LFSG 040900Z AUTO 03004KT 340V070 9999 FEW024 18/11 Q1017
LFJL - Metz-Nancy-Lorra, France
Distance from station: ENE 82km
Mise à jour: 04/08/2020 11:00
clair
clair
 Wind from varies
Vent: varies 6 km/h
Température: 18°C
Point de rosée: 12°C
Humidité: 68%
Baromètre: 1017 hPa
Résumé: clair
Visibility: greater than 10 km
2020/08/04 09:00 LFJL 040900Z AUTO VRB03KT CAVOK 18/12 Q1017 NOSIG
 
LFQA - Reims/Prunay, France
Distance from station: ONO 89km
Mise à jour: 04/08/2020 11:00
Few Clouds
Few Clouds
 Wind from NNO
Vent: NNO 13 km/h
Température: 19°C
Point de rosée: 12°C
Humidité: 64%
Baromètre: 1018 hPa
Clouds: Few Clouds
Visibility: 10 km
Cloud details: Few Clouds 823 m
2020/08/04 09:00 LFQA 040900Z AUTO 33007KT 250V030 9999 FEW027 19/12 Q1018
LFQB - Troyes/Barberey, France
Distance from station: OSO 99km
Mise à jour: 04/08/2020 11:00
nuageux
nuageux
 Wind from N
Vent: N 11 km/h
Température: 19°C
Point de rosée: 12°C
Humidité: 64%
Baromètre: 1018 hPa
Clouds: nuageux
Visibility: 10 km
Cloud details: nuageux 762 m
2020/08/04 09:00 LFQB 040900Z AUTO 35006KT 310V040 9999 BKN025 19/12 Q1018